Nome, AK (99762)

5:37 AM AKDT on July 27, 2016 (GMT -0800)
BA Airport | | Change Station

Elev 37 ft 64.51 °N, 165.45 °W | Updated 2 minutes ago

Mostly Cloudy
Mostly Cloudy
47.2 °F
Feels Like 47 °F
N
0.0
Wind Variable Wind from West
Gusts 5.0 mph

Today
High -- | Low -- °F
--% Chance of Precip.
Yesterday
High -- | Low -- °F
Precip. -- in
Pressure 29.72 in
Visibility 10.0 miles
Clouds Scattered Clouds 7000 ft
Mostly Cloudy 9000 ft
Mostly Cloudy 20000 ft
Windchill 47 °F
Dew Point 46 °F
Humidity 95%
Rainfall 0.00 in
Snow Depth Not available.
5:50 AM 0:22 AM
Last Quarter, 43% visible
METAR PAOM 271253Z 29003KT 10SM SCT070 BKN090 BKN200 09/08 A2972 RMK SLP064 T00890078 VIA AUTODIAL
Pressure 29.72 in
Visibility 10.0 miles
Clouds Scattered Clouds 7000 ft
Mostly Cloudy 9000 ft
Mostly Cloudy 20000 ft
Windchill 47 °F
Dew Point 46 °F
Humidity 95%
Rainfall 0.00 in
Snow Depth Not available.
5:50 AM 0:22 AM
Last Quarter, 43% visible
METAR PAOM 271253Z 29003KT 10SM SCT070 BKN090 BKN200 09/08 A2972 RMK SLP064 T00890078 VIA AUTODIAL

10-Day Weather Forecast

Almanac

Astronomy

Jul. 27, 2016 Rise Set
Actual Time
Civil Twilight
Nautical Twilight
Astronomical Twilight
Moon
Length of Visible Light
Length of Day
Tomorrow will be .
, % of the Moon is Illuminated

Today's Extremes

State Highs State Lows

Community

WunderPhotos

Upload Photos

1,927,844 photos uploaded!

WunderBlog® & News

Nearby

Air Quality

  Air Quality AQ Index Pollutant
Not available.

Snow Depth

Station Depth Elevation

Earthquake Activity

City Distance Mag. Time & Date
Minimum magnitude displayed is 2.5.

Coastal Water Temperatures

Place Temperature

Stations

Nearby Weather Stations

Station Location Temp. Windchill Dew Point Humidity Wind Precip. Elev Updated Type
                   

Watches & Warnings

There are currently no watches in effect.